createdAt,value
2019-05-22T00:00:49.241Z,64.94
2019-05-22T00:03:27.404Z,64.97
2019-05-22T00:05:58.400Z,65.00
2019-05-22T00:08:30.157Z,65.06
2019-05-22T00:11:02.282Z,65.11
2019-05-22T00:13:35.665Z,65.15
2019-05-22T00:16:08.548Z,65.20
2019-05-22T00:18:39.922Z,65.23
2019-05-22T00:21:10.166Z,65.29
2019-05-22T00:23:42.534Z,65.33
2019-05-22T00:26:15.267Z,65.38
2019-05-22T00:28:47.848Z,65.42
2019-05-22T00:31:18.152Z,65.48
2019-05-22T00:33:49.234Z,65.52
2019-05-22T00:36:20.743Z,65.56
2019-05-22T00:38:51.170Z,65.61
2019-05-22T00:41:24.050Z,65.66
2019-05-22T00:43:56.867Z,65.72
2019-05-22T00:46:28.417Z,65.80
2019-05-22T00:48:59.910Z,65.83
2019-05-22T00:51:35.786Z,65.90
2019-05-22T00:54:25.887Z,65.95
2019-05-22T00:56:57.751Z,66.00
2019-05-22T00:59:36.372Z,66.06
2019-05-22T01:02:08.235Z,66.09
2019-05-22T01:04:42.955Z,66.15
2019-05-22T01:07:17.760Z,66.20
2019-05-22T01:09:48.931Z,66.25
2019-05-22T01:12:29.855Z,66.30
2019-05-22T01:15:05.536Z,66.36
2019-05-22T01:17:38.421Z,66.42
2019-05-22T01:20:12.825Z,66.48
2019-05-22T01:22:42.477Z,66.52
2019-05-22T01:25:16.440Z,66.59
2019-05-22T01:27:48.800Z,66.64
2019-05-22T01:30:37.029Z,66.67
2019-05-22T01:33:14.132Z,66.75
2019-05-22T01:35:50.298Z,66.81
2019-05-22T01:38:23.561Z,66.86
2019-05-22T01:40:56.275Z,66.92
2019-05-22T01:43:28.136Z,66.98
2019-05-22T01:46:03.497Z,67.02
2019-05-22T01:48:40.307Z,67.10
2019-05-22T01:51:11.507Z,67.14
2019-05-22T01:53:44.338Z,67.21
2019-05-22T01:56:17.217Z,67.25
2019-05-22T01:58:50.072Z,67.31
2019-05-22T02:01:22.202Z,67.39
2019-05-22T02:03:55.413Z,67.45
2019-05-22T02:06:26.897Z,67.49
2019-05-22T02:09:31.357Z,67.54
2019-05-22T02:12:09.005Z,67.60
2019-05-22T02:14:42.625Z,67.67
2019-05-22T02:17:13.331Z,67.71
2019-05-22T02:19:46.291Z,67.78
2019-05-22T02:22:17.413Z,67.84
2019-05-22T02:24:51.921Z,67.90
2019-05-22T02:27:24.282Z,67.96
2019-05-22T02:29:55.611Z,68.00
2019-05-22T02:32:27.764Z,68.06
2019-05-22T02:35:00.171Z,68.09
2019-05-22T02:37:32.877Z,68.13
2019-05-22T02:40:04.817Z,68.19
2019-05-22T02:42:36.950Z,68.25
2019-05-22T02:45:10.779Z,68.31
2019-05-22T02:47:43.019Z,68.36
2019-05-22T02:50:16.969Z,68.41
2019-05-22T02:52:47.921Z,68.44
2019-05-22T02:55:19.149Z,68.47
2019-05-22T02:57:50.043Z,68.54
2019-05-22T03:00:22.641Z,68.56
2019-05-22T03:02:57.538Z,68.61
2019-05-22T03:05:28.327Z,68.61
2019-05-22T03:08:00.318Z,68.64
2019-05-22T03:10:32.818Z,68.65
2019-05-22T03:13:04.456Z,68.66
2019-05-22T03:15:35.242Z,68.66
2019-05-22T03:18:08.943Z,68.67
2019-05-22T03:20:40.321Z,68.67
2019-05-22T03:23:36.519Z,68.67
2019-05-22T03:26:10.811Z,68.66
2019-05-22T03:28:42.305Z,68.67
2019-05-22T03:31:13.072Z,68.63
2019-05-22T03:33:44.457Z,68.62
2019-05-22T03:36:17.238Z,68.61
2019-05-22T03:38:48.906Z,68.57
2019-05-22T03:41:19.609Z,68.57
2019-05-22T03:43:51.135Z,68.53
2019-05-22T03:46:26.126Z,68.50
2019-05-22T03:48:57.594Z,68.47
2019-05-22T03:51:28.192Z,68.46
2019-05-22T03:53:58.473Z,68.42
2019-05-22T03:56:30.034Z,68.41
2019-05-22T03:59:02.648Z,68.38
2019-05-22T04:01:34.553Z,68.36
2019-05-22T04:04:07.555Z,68.37
2019-05-22T04:06:40.267Z,68.36
2019-05-22T04:09:19.847Z,68.34
2019-05-22T04:11:50.597Z,68.33
2019-05-22T04:14:22.109Z,68.34
2019-05-22T04:16:52.838Z,68.32
2019-05-22T04:19:23.933Z,68.31
2019-05-22T04:21:55.255Z,68.30
2019-05-22T04:24:26.250Z,68.29
2019-05-22T04:26:57.402Z,68.27
2019-05-22T04:29:28.432Z,68.26
2019-05-22T04:32:07.048Z,68.24
2019-05-22T04:34:37.606Z,68.23
2019-05-22T04:37:10.647Z,68.18
2019-05-22T04:39:41.629Z,68.17
2019-05-22T04:42:12.714Z,68.15
2019-05-22T04:45:03.401Z,68.13
2019-05-22T04:47:35.551Z,68.09
2019-05-22T04:50:10.735Z,68.09
2019-05-22T04:52:42.274Z,68.06
2019-05-22T04:55:13.599Z,68.05
2019-05-22T04:57:44.588Z,68.00
2019-05-22T05:00:16.614Z,67.94
2019-05-22T05:02:47.635Z,67.88
2019-05-22T05:05:19.396Z,67.83
2019-05-22T05:07:52.314Z,67.74
2019-05-22T05:10:24.424Z,67.71
2019-05-22T05:12:57.760Z,67.63
2019-05-22T05:15:28.010Z,67.54
2019-05-22T05:17:58.412Z,67.45
2019-05-22T05:20:29.068Z,67.35
2019-05-22T05:22:59.974Z,67.26
2019-05-22T05:25:31.247Z,67.17
2019-05-22T05:28:02.955Z,67.06
2019-05-22T05:30:34.297Z,66.98
2019-05-22T05:33:05.618Z,66.88
2019-05-22T05:35:37.411Z,66.78
2019-05-22T05:38:08.380Z,66.66
2019-05-22T05:40:43.074Z,66.58
2019-05-22T05:43:16.511Z,66.50
2019-05-22T05:45:50.792Z,66.42
2019-05-22T05:48:22.930Z,66.36
2019-05-22T05:51:08.414Z,66.28
2019-05-22T05:54:03.151Z,66.20
2019-05-22T05:56:37.168Z,66.11
2019-05-22T05:59:09.446Z,66.00
2019-05-22T06:01:42.130Z,65.86
2019-05-22T06:04:13.400Z,65.77
2019-05-22T06:06:51.980Z,65.66
2019-05-22T06:09:24.913Z,65.52
2019-05-22T06:11:59.624Z,65.39
2019-05-22T06:14:32.283Z,65.26
2019-05-22T06:17:36.072Z,65.14
2019-05-22T06:20:12.414Z,65.03
2019-05-22T06:22:45.177Z,64.89
2019-05-22T06:25:17.570Z,64.78
2019-05-22T06:27:52.684Z,64.66
2019-05-22T06:30:41.187Z,64.57
2019-05-22T06:33:26.155Z,64.46
2019-05-22T06:35:57.115Z,64.36
2019-05-22T06:38:50.088Z,64.21
2019-05-22T06:41:23.174Z,64.10
2019-05-22T06:44:27.403Z,63.94
2019-05-22T06:46:58.745Z,63.84
2019-05-22T06:49:35.048Z,63.72
2019-05-22T06:52:07.191Z,63.62
2019-05-22T06:54:38.813Z,63.50
2019-05-22T06:57:12.427Z,63.42
2019-05-22T06:59:43.503Z,63.34
2019-05-22T07:02:17.263Z,63.28
2019-05-22T07:04:48.838Z,63.22
2019-05-22T07:07:21.568Z,63.16
2019-05-22T07:09:53.003Z,63.11
2019-05-22T07:12:24.974Z,63.06
2019-05-22T07:15:07.621Z,62.97
2019-05-22T07:17:40.611Z,62.87
2019-05-22T07:20:13.156Z,62.83
2019-05-22T07:22:45.534Z,62.78
2019-05-22T07:25:16.323Z,62.69
2019-05-22T07:27:46.787Z,62.62
2019-05-22T07:30:18.040Z,62.53
2019-05-22T07:32:48.525Z,62.41
2019-05-22T07:35:19.364Z,62.27
2019-05-22T07:37:50.953Z,62.13
2019-05-22T07:40:22.806Z,62.04
2019-05-22T07:42:54.447Z,61.94
2019-05-22T07:45:29.295Z,61.83
2019-05-22T07:48:01.693Z,61.73
2019-05-22T07:50:37.520Z,61.63
2019-05-22T07:53:09.774Z,61.57
2019-05-22T07:55:41.537Z,61.50
2019-05-22T07:58:17.166Z,61.42
2019-05-22T08:00:55.263Z,61.37
2019-05-22T08:03:26.316Z,61.30
2019-05-22T08:05:58.771Z,61.23
2019-05-22T08:08:33.233Z,61.15
2019-05-22T08:11:05.822Z,61.02
2019-05-22T08:13:37.962Z,60.84
2019-05-22T08:16:09.893Z,60.65
2019-05-22T08:18:40.784Z,60.46
2019-05-22T08:21:12.265Z,60.25
2019-05-22T08:23:42.993Z,60.06
2019-05-22T08:26:15.880Z,59.92
2019-05-22T08:28:46.950Z,59.77
2019-05-22T08:31:21.305Z,59.66
2019-05-22T08:33:53.196Z,59.55
2019-05-22T08:36:24.426Z,59.46
2019-05-22T08:38:55.094Z,59.40
2019-05-22T08:41:29.042Z,59.35
2019-05-22T08:44:15.219Z,59.29
2019-05-22T08:46:34.085Z,59.28
2019-05-22T08:49:07.326Z,59.24
2019-05-22T08:51:38.901Z,59.22
2019-05-22T08:54:09.931Z,59.16
2019-05-22T08:56:44.999Z,59.14
2019-05-22T08:59:19.902Z,59.11
2019-05-22T09:01:49.536Z,59.08
2019-05-22T09:04:21.240Z,59.09
2019-05-22T09:06:52.231Z,59.08
2019-05-22T09:09:23.554Z,59.06
2019-05-22T09:11:54.175Z,59.05
2019-05-22T09:14:24.816Z,59.05
2019-05-22T09:16:57.693Z,59.06
2019-05-22T09:19:29.407Z,59.05
2019-05-22T09:22:00.874Z,59.05
2019-05-22T09:24:33.981Z,59.07
2019-05-22T09:27:05.692Z,59.07
2019-05-22T09:29:36.206Z,59.09
2019-05-22T09:32:07.757Z,59.10
2019-05-22T09:34:39.435Z,59.12
2019-05-22T09:37:10.018Z,59.13
2019-05-22T09:39:41.387Z,59.14
2019-05-22T09:42:13.328Z,59.14
2019-05-22T09:44:44.457Z,59.18
2019-05-22T09:47:16.009Z,59.19
2019-05-22T09:49:49.564Z,59.18
2019-05-22T09:52:20.611Z,59.20
2019-05-22T09:54:51.633Z,59.22
2019-05-22T09:57:22.705Z,59.24
2019-05-22T09:59:53.081Z,59.30
2019-05-22T10:02:26.151Z,59.33
2019-05-22T10:04:57.096Z,59.33
2019-05-22T10:07:27.450Z,59.34
2019-05-22T10:09:57.692Z,59.34
2019-05-22T10:12:29.880Z,59.34
2019-05-22T10:15:01.549Z,59.31
2019-05-22T10:17:34.533Z,59.29
2019-05-22T10:20:08.975Z,59.26
2019-05-22T10:22:40.792Z,59.24
2019-05-22T10:25:16.491Z,59.22
2019-05-22T10:27:48.834Z,59.18
2019-05-22T10:30:24.934Z,59.19
2019-05-22T10:32:56.397Z,59.18
2019-05-22T10:35:29.121Z,59.17
2019-05-22T10:38:00.066Z,59.19
2019-05-22T10:40:30.774Z,59.21
2019-05-22T10:43:01.079Z,59.20
2019-05-22T10:45:32.246Z,59.24
2019-05-22T10:48:03.633Z,59.23
2019-05-22T10:50:34.949Z,59.22
2019-05-22T10:53:06.407Z,59.20
2019-05-22T10:55:37.685Z,59.20
2019-05-22T10:58:08.989Z,59.20
2019-05-22T11:00:39.979Z,59.18
2019-05-22T11:03:12.008Z,59.16
2019-05-22T11:05:44.266Z,59.13
2019-05-22T11:08:14.740Z,59.04
2019-05-22T11:10:46.315Z,58.99
2019-05-22T11:13:17.609Z,58.89
2019-05-22T11:15:48.671Z,58.76
2019-05-22T11:18:19.688Z,58.62
2019-05-22T11:20:51.448Z,58.47
2019-05-22T11:23:21.949Z,58.33
2019-05-22T11:25:52.553Z,58.21
2019-05-22T11:28:24.409Z,58.05
2019-05-22T11:30:56.469Z,57.93
2019-05-22T11:33:27.335Z,57.77
2019-05-22T11:35:58.865Z,57.66
2019-05-22T11:38:30.436Z,57.55
2019-05-22T11:41:01.407Z,57.40
2019-05-22T11:43:33.407Z,57.28
2019-05-22T11:46:05.009Z,57.19
2019-05-22T11:48:35.768Z,57.08
2019-05-22T11:51:06.934Z,56.98
2019-05-22T11:53:37.814Z,56.87
2019-05-22T11:56:08.253Z,56.78
2019-05-22T11:58:39.087Z,56.70
2019-05-22T12:01:09.668Z,56.60
2019-05-22T12:03:42.316Z,56.46
2019-05-22T12:06:14.435Z,56.34
2019-05-22T12:08:47.460Z,56.21
2019-05-22T12:11:20.371Z,56.09
2019-05-22T12:13:51.280Z,55.99
2019-05-22T12:16:24.647Z,55.90
2019-05-22T12:18:58.430Z,55.82
2019-05-22T12:21:26.945Z,55.73
2019-05-22T12:23:57.554Z,55.65
2019-05-22T12:26:28.691Z,55.59
2019-05-22T12:28:59.232Z,55.52
2019-05-22T12:31:30.108Z,55.44
2019-05-22T12:34:01.858Z,55.36
2019-05-22T12:36:33.963Z,55.29
2019-05-22T12:39:09.427Z,55.17
2019-05-22T12:41:40.842Z,55.07
2019-05-22T12:44:12.078Z,55.00
2019-05-22T12:46:43.703Z,54.90
2019-05-22T13:02:42.881Z,54.75
2019-05-22T13:05:14.610Z,54.76
2019-05-22T13:07:56.375Z,54.79
2019-05-22T13:10:29.055Z,54.80
2019-05-22T13:13:01.509Z,54.83
2019-05-22T13:15:33.106Z,54.83
2019-05-22T13:18:03.855Z,54.83
2019-05-22T13:20:43.129Z,54.85
2019-05-22T13:23:13.920Z,54.86
2019-05-22T13:25:45.977Z,54.87
2019-05-22T13:28:18.433Z,54.84
2019-05-22T13:30:52.820Z,54.82
2019-05-22T13:33:26.972Z,54.73
2019-05-22T13:35:57.839Z,54.68
2019-05-22T13:38:28.422Z,54.61
2019-05-22T13:41:00.303Z,54.54
2019-05-22T13:43:31.308Z,54.48
2019-05-22T13:46:02.747Z,54.37
2019-05-22T13:48:34.178Z,54.26
2019-05-22T13:51:07.458Z,54.17
2019-05-22T13:53:38.240Z,54.05
2019-05-22T13:56:11.265Z,53.98
2019-05-22T13:58:43.587Z,53.91
2019-05-22T14:01:14.532Z,53.80
2019-05-22T14:03:45.711Z,53.72
2019-05-22T14:06:16.104Z,53.65
2019-05-22T14:08:47.143Z,53.61
2019-05-22T14:11:19.597Z,53.58
2019-05-22T14:13:52.505Z,53.50
2019-05-22T14:16:23.198Z,53.48
2019-05-22T14:18:53.909Z,53.45
2019-05-22T14:21:24.692Z,53.42
2019-05-22T14:23:55.405Z,53.42
2019-05-22T14:26:29.585Z,53.40
2019-05-22T14:28:58.498Z,53.40
2019-05-22T14:31:28.785Z,53.39
2019-05-22T14:33:59.814Z,53.40
2019-05-22T14:36:31.253Z,53.35
2019-05-22T14:39:03.793Z,53.34
2019-05-22T14:41:34.319Z,53.31
2019-05-22T14:44:05.696Z,53.24
2019-05-22T14:46:36.010Z,53.22
2019-05-22T14:49:07.260Z,53.18
2019-05-22T14:51:38.647Z,53.14
2019-05-22T14:54:12.297Z,53.11
2019-05-22T14:56:45.901Z,53.10
2019-05-22T14:59:18.003Z,53.08
2019-05-22T15:01:52.038Z,53.07
2019-05-22T15:04:26.114Z,53.08
2019-05-22T15:06:57.376Z,53.09
2019-05-22T15:09:28.468Z,53.11
2019-05-22T15:12:02.605Z,53.14
2019-05-22T15:14:35.358Z,53.18
2019-05-22T15:17:07.909Z,53.19
2019-05-22T15:19:38.851Z,53.19
2019-05-22T15:22:09.661Z,53.20
2019-05-22T15:24:39.985Z,53.19
2019-05-22T15:27:12.526Z,53.20
2019-05-22T15:29:43.560Z,53.17
2019-05-22T15:32:16.387Z,53.15
2019-05-22T15:34:48.791Z,53.13
2019-05-22T15:37:26.545Z,53.08
2019-05-22T15:40:00.721Z,53.02
2019-05-22T15:42:33.627Z,52.98
2019-05-22T15:45:07.347Z,52.95
2019-05-22T15:47:54.793Z,52.94
2019-05-22T15:50:17.608Z,52.92
2019-05-22T15:52:52.195Z,52.91
2019-05-22T15:55:25.495Z,52.90
2019-05-22T15:57:58.613Z,52.89
2019-05-22T16:00:35.535Z,52.87
2019-05-22T16:03:17.101Z,52.88
2019-05-22T16:05:49.444Z,52.84
2019-05-22T16:08:26.114Z,52.83
2019-05-22T16:11:00.792Z,52.78
2019-05-22T16:13:34.049Z,52.77
2019-05-22T16:16:06.489Z,52.73
2019-05-22T16:18:39.556Z,52.72
2019-05-22T16:21:12.383Z,52.71
2019-05-22T16:23:44.645Z,52.68
2019-05-22T16:26:15.548Z,52.71
2019-05-22T16:28:47.987Z,52.73
2019-05-22T16:31:21.769Z,52.74
2019-05-22T16:33:53.666Z,52.76
2019-05-22T16:36:25.832Z,52.81
2019-05-22T16:38:58.081Z,52.82
2019-05-22T16:41:30.936Z,52.84
2019-05-22T16:44:01.316Z,52.88
2019-05-22T16:46:33.728Z,52.93
2019-05-22T16:49:05.483Z,52.96
2019-05-22T16:51:36.641Z,53.01
2019-05-22T16:54:09.634Z,53.08
2019-05-22T16:56:41.907Z,53.13
2019-05-22T16:59:14.742Z,53.16
2019-05-22T17:01:58.712Z,53.22
2019-05-22T17:10:25.739Z,53.36
2019-05-22T17:12:58.568Z,53.43
2019-05-22T17:15:29.753Z,53.46
2019-05-22T17:18:00.260Z,53.48
2019-05-22T17:20:32.290Z,53.52
2019-05-22T17:23:02.958Z,53.56
2019-05-22T17:25:34.115Z,53.59
2019-05-22T17:28:06.603Z,53.62
2019-05-22T17:30:38.766Z,53.64
2019-05-22T17:33:11.250Z,53.66
2019-05-22T17:35:42.372Z,53.69
2019-05-22T17:38:15.791Z,53.70
2019-05-22T17:40:46.729Z,53.71
2019-05-22T17:43:18.554Z,53.72
2019-05-22T17:45:52.480Z,53.74
2019-05-22T17:48:24.371Z,53.77
2019-05-22T17:50:54.812Z,53.81
2019-05-22T17:53:25.749Z,53.83
2019-05-22T17:55:57.383Z,53.87
2019-05-22T17:58:30.173Z,53.91
2019-05-22T18:01:01.193Z,53.96
2019-05-22T18:03:32.004Z,54.00
2019-05-22T18:06:02.877Z,54.08
2019-05-22T18:08:33.462Z,54.12
2019-05-22T18:11:07.318Z,54.20
2019-05-22T18:13:49.442Z,54.27
2019-05-22T18:16:22.658Z,54.36
2019-05-22T18:18:52.970Z,54.46
2019-05-22T18:21:23.612Z,54.52
2019-05-22T18:23:54.223Z,54.60
2019-05-22T18:26:24.446Z,54.69
2019-05-22T18:28:55.295Z,54.78
2019-05-22T18:31:25.557Z,54.87
2019-05-22T18:33:56.049Z,54.93
2019-05-22T18:36:26.350Z,55.03
2019-05-22T18:38:56.685Z,55.12
2019-05-22T18:41:31.396Z,55.19
2019-05-22T18:44:03.846Z,55.30
2019-05-22T18:46:34.303Z,55.38
2019-05-22T18:49:04.924Z,55.48
2019-05-22T18:51:35.279Z,55.53
2019-05-22T18:54:05.947Z,55.64
2019-05-22T18:56:37.358Z,55.75
2019-05-22T18:59:10.141Z,55.84
2019-05-22T19:01:41.286Z,55.96
2019-05-22T19:04:12.003Z,56.05
2019-05-22T19:06:43.442Z,56.14
2019-05-22T19:09:16.125Z,56.27
2019-05-22T19:11:46.888Z,56.39
2019-05-22T19:14:19.025Z,56.48
2019-05-22T19:16:49.299Z,56.61
2019-05-22T19:19:20.057Z,56.72
2019-05-22T19:21:51.420Z,56.83
2019-05-22T19:24:23.388Z,56.93
2019-05-22T19:26:54.312Z,57.05
2019-05-22T19:29:24.694Z,57.17
2019-05-22T19:31:55.148Z,57.29
2019-05-22T19:34:25.725Z,57.40
2019-05-22T19:36:55.949Z,57.53
2019-05-22T19:39:26.510Z,57.65
2019-05-22T19:42:02.953Z,57.79
2019-05-22T19:44:30.008Z,57.91
2019-05-22T19:47:01.529Z,58.03
2019-05-22T19:49:32.658Z,58.18
2019-05-22T19:52:04.311Z,58.31
2019-05-22T19:54:36.803Z,58.41
2019-05-22T19:57:08.920Z,58.56
2019-05-22T19:59:39.805Z,58.66
2019-05-22T20:02:12.377Z,58.79
2019-05-22T20:04:43.623Z,58.89
2019-05-22T20:07:14.385Z,59.02
2019-05-22T20:09:44.659Z,59.15
2019-05-22T20:12:15.673Z,59.26
2019-05-22T20:14:47.288Z,59.40
2019-05-22T20:17:17.941Z,59.54
2019-05-22T20:19:49.142Z,59.65
2019-05-22T20:22:19.830Z,59.78
2019-05-22T20:24:50.432Z,59.90
2019-05-22T20:27:21.762Z,60.01
2019-05-22T20:29:53.090Z,60.13
2019-05-22T20:32:25.290Z,60.24
2019-05-22T20:34:55.705Z,60.35
2019-05-22T20:37:26.860Z,60.49
2019-05-22T20:39:59.568Z,60.61
2019-05-22T20:42:32.191Z,60.74
2019-05-22T20:45:03.053Z,60.84
2019-05-22T20:47:35.780Z,60.99
2019-05-22T20:50:09.149Z,61.10
2019-05-22T20:52:40.121Z,61.22
2019-05-22T20:55:12.349Z,61.35
2019-05-22T20:57:43.877Z,61.48
2019-05-22T21:00:17.308Z,61.61
2019-05-22T21:02:48.746Z,61.75
2019-05-22T21:05:23.206Z,61.87
2019-05-22T21:07:57.317Z,62.00
2019-05-22T21:10:30.372Z,62.14
2019-05-22T21:13:02.624Z,62.26
2019-05-22T21:15:34.188Z,62.39
2019-05-22T21:18:08.321Z,62.53
2019-05-22T21:20:53.595Z,62.66
2019-05-22T21:23:11.275Z,62.81
2019-05-22T21:25:42.438Z,62.94
2019-05-22T21:28:13.564Z,63.06
2019-05-22T21:30:45.493Z,63.19
2019-05-22T21:33:17.473Z,63.29
2019-05-22T21:35:48.610Z,63.41
2019-05-22T21:38:19.719Z,63.49
2019-05-22T21:40:54.071Z,63.61
2019-05-22T21:43:24.848Z,63.68
2019-05-22T21:45:55.235Z,63.76
2019-05-22T21:48:30.531Z,63.86
2019-05-22T21:51:02.618Z,63.96
2019-05-22T21:53:35.054Z,64.06
2019-05-22T21:56:06.929Z,64.14
2019-05-22T21:58:39.152Z,64.23
2019-05-22T22:01:12.100Z,64.31
2019-05-22T22:03:54.875Z,64.39
2019-05-22T22:06:26.788Z,64.49
2019-05-22T22:08:57.010Z,64.57
2019-05-22T22:11:31.025Z,64.67
2019-05-22T22:14:03.520Z,64.74
2019-05-22T22:16:34.841Z,64.82
2019-05-22T22:19:07.365Z,64.91
2019-05-22T22:21:39.646Z,64.99
2019-05-22T22:24:10.986Z,65.06
2019-05-22T22:26:41.908Z,65.15
2019-05-22T22:29:15.342Z,65.22
2019-05-22T22:31:49.158Z,65.32
2019-05-22T22:34:27.934Z,65.40
2019-05-22T22:36:59.357Z,65.49
2019-05-22T22:39:32.133Z,65.58
2019-05-22T22:42:04.596Z,65.65
2019-05-22T22:44:36.171Z,65.75
2019-05-22T22:47:11.489Z,65.84
2019-05-22T22:49:42.961Z,65.94
2019-05-22T22:52:15.463Z,65.99
2019-05-22T22:54:47.946Z,66.10
2019-05-22T22:57:18.922Z,66.15
2019-05-22T22:59:49.163Z,66.26
2019-05-22T23:02:22.930Z,66.29
2019-05-22T23:04:55.445Z,66.39
2019-05-22T23:07:30.646Z,66.45
2019-05-22T23:10:01.996Z,66.52
2019-05-22T23:12:35.600Z,66.62
2019-05-22T23:15:07.917Z,66.67
2019-05-22T23:17:38.807Z,66.74
2019-05-22T23:20:08.058Z,66.81
2019-05-22T23:22:38.153Z,66.87
2019-05-22T23:25:10.466Z,66.93
2019-05-22T23:27:41.561Z,67.02
2019-05-22T23:30:14.034Z,67.10
2019-05-22T23:32:45.750Z,67.17
2019-05-22T23:35:20.305Z,67.26
2019-05-22T23:37:52.329Z,67.31
2019-05-22T23:40:28.150Z,67.40
2019-05-22T23:43:02.065Z,67.47
2019-05-22T23:45:34.068Z,67.55
2019-05-22T23:48:14.546Z,67.62
2019-05-22T23:50:47.352Z,67.73
2019-05-22T23:53:18.757Z,67.82
2019-05-22T23:55:50.314Z,67.91
2019-05-22T23:58:23.308Z,68.01
